Terminal Aerodrome Forecast
Issued by NWS Columbia, SC

Home | Current Version | Previous Version | Text Only | Print | Product List | Glossary On
Versions: 1 2 3 4 5 6 7 8 9 10 11 12 13 14 15 16 17 18 19 20 21 22 23 24 25 26 27 28 29 30 31 32 33 34 35 36
000
FTUS42 KCAE 301815 CCB
TAFCAE
TAF COR
KCAE 301815Z 3018/3118 05006KT P6SM SCT025 BKN050
      TEMPO 3018/3022 3SM RA BKN022
     FM302200 07006KT P6SM VCSH BKN035 OVC050
     FM310300 VRB04KT P6SM OVC007
      TEMPO 3110/3114 4SM BR
     FM311600 09006KT P6SM BKN015 OVC040=

USA.gov is the U.S. government's official web portal to all federal, state and local government web resources and services.